sensor_id;sensor_type;location;lat;lon;timestamp;temperature;humidity
63407;SHT31;49543;45.892;10.838;2023-02-01T06:23:16;3.78;64.16
63407;SHT31;49543;45.892;10.838;2023-02-01T06:25:42;3.73;64.21
63407;SHT31;49543;45.892;10.838;2023-02-01T06:28:13;3.70;64.76
63407;SHT31;49543;45.892;10.838;2023-02-01T06:30:42;3.70;65.47
63407;SHT31;49543;45.892;10.838;2023-02-01T06:33:28;3.62;65.75
63407;SHT31;49543;45.892;10.838;2023-02-01T06:36:06;3.62;65.47
63407;SHT31;49543;45.892;10.838;2023-02-01T06:38:42;3.56;65.85
63407;SHT31;49543;45.892;10.838;2023-02-01T06:41:08;3.53;65.76
63407;SHT31;49543;45.892;10.838;2023-02-01T06:43:34;3.53;65.71
63407;SHT31;49543;45.892;10.838;2023-02-01T06:46:02;3.56;65.79
63407;SHT31;49543;45.892;10.838;2023-02-01T06:48:28;3.60;66.05
63407;SHT31;49543;45.892;10.838;2023-02-01T06:50:53;3.59;66.11
63407;SHT31;49543;45.892;10.838;2023-02-01T06:53:19;3.62;65.87
63407;SHT31;49543;45.892;10.838;2023-02-01T06:55:54;3.59;66.02
63407;SHT31;49543;45.892;10.838;2023-02-01T06:58:20;3.57;66.06
63407;SHT31;49543;45.892;10.838;2023-02-01T07:00:45;3.52;65.84
63407;SHT31;49543;45.892;10.838;2023-02-01T07:03:11;3.49;65.76
63407;SHT31;49543;45.892;10.838;2023-02-01T07:05:36;3.49;65.94
63407;SHT31;49543;45.892;10.838;2023-02-01T07:08:01;3.49;66.35
63407;SHT31;49543;45.892;10.838;2023-02-01T10:33:18;12.68;45.98
63407;SHT31;49543;45.892;10.838;2023-02-01T10:35:44;12.96;46.39
63407;SHT31;49543;45.892;10.838;2023-02-01T10:38:12;12.99;45.93
63407;SHT31;49543;45.892;10.838;2023-02-01T10:40:41;13.16;46.10
63407;SHT31;49543;45.892;10.838;2023-02-01T10:43:07;13.24;46.41
63407;SHT31;49543;45.892;10.838;2023-02-01T10:45:34;13.41;46.64
63407;SHT31;49543;45.892;10.838;2023-02-01T10:47:59;13.44;48.06
63407;SHT31;49543;45.892;10.838;2023-02-01T10:52:52;13.43;48.30
63407;SHT31;49543;45.892;10.838;2023-02-01T10:55:30;13.36;48.41
63407;SHT31;49543;45.892;10.838;2023-02-01T10:57:57;13.28;48.32
63407;SHT31;49543;45.892;10.838;2023-02-01T11:00:23;13.38;47.86
63407;SHT31;49543;45.892;10.838;2023-02-01T11:02:49;13.30;46.30
63407;SHT31;49543;45.892;10.838;2023-02-01T11:05:15;13.28;46.74
63407;SHT31;49543;45.892;10.838;2023-02-01T11:07:46;13.24;45.85
63407;SHT31;49543;45.892;10.838;2023-02-01T11:10:36;13.13;45.49
63407;SHT31;49543;45.892;10.838;2023-02-01T11:13:02;13.24;46.45
63407;SHT31;49543;45.892;10.838;2023-02-01T11:15:28;13.38;45.63
63407;SHT31;49543;45.892;10.838;2023-02-01T11:17:54;13.31;46.60
63407;SHT31;49543;45.892;10.838;2023-02-01T11:20:35;13.48;46.40
63407;SHT31;49543;45.892;10.838;2023-02-01T11:23:03;13.76;44.90
63407;SHT31;49543;45.892;10.838;2023-02-01T11:25:28;13.87;45.33
63407;SHT31;49543;45.892;10.838;2023-02-01T11:27:55;13.78;45.13
63407;SHT31;49543;45.892;10.838;2023-02-01T11:30:37;13.69;46.38
63407;SHT31;49543;45.892;10.838;2023-02-01T11:33:05;13.59;47.99
63407;SHT31;49543;45.892;10.838;2023-02-01T11:35:31;13.53;49.56
63407;SHT31;49543;45.892;10.838;2023-02-01T11:37:58;13.55;50.46
63407;SHT31;49543;45.892;10.838;2023-02-01T11:40:34;13.50;50.76
63407;SHT31;49543;45.892;10.838;2023-02-01T11:43:01;13.48;50.46
63407;SHT31;49543;45.892;10.838;2023-02-01T11:45:32;13.59;50.11
63407;SHT31;49543;45.892;10.838;2023-02-01T11:48:09;13.74;50.08
63407;SHT31;49543;45.892;10.838;2023-02-01T11:50:46;13.85;50.03
63407;SHT31;49543;45.892;10.838;2023-02-01T11:55:52;14.08;47.56
63407;SHT31;49543;45.892;10.838;2023-02-01T12:05:48;13.82;47.92
63407;SHT31;49543;45.892;10.838;2023-02-01T12:08:27;13.89;48.63
63407;SHT31;49543;45.892;10.838;2023-02-01T12:31:48;13.93;50.39
63407;SHT31;49543;45.892;10.838;2023-02-01T18:07:45;7.32;63.70
63407;SHT31;49543;45.892;10.838;2023-02-01T18:10:11;7.28;63.38
63407;SHT31;49543;45.892;10.838;2023-02-01T18:12:36;7.25;63.64
63407;SHT31;49543;45.892;10.838;2023-02-01T18:15:08;7.22;64.44
63407;SHT31;49543;45.892;10.838;2023-02-01T18:17:37;7.18;64.52
63407;SHT31;49543;45.892;10.838;2023-02-01T18:20:03;7.18;64.20
63407;SHT31;49543;45.892;10.838;2023-02-01T18:22:28;7.18;63.96
63407;SHT31;49543;45.892;10.838;2023-02-01T18:24:55;7.14;64.27
63407;SHT31;49543;45.892;10.838;2023-02-01T18:27:20;7.12;63.82
63407;SHT31;49543;45.892;10.838;2023-02-01T18:29:46;7.15;63.99
63407;SHT31;49543;45.892;10.838;2023-02-01T18:32:11;7.14;64.46
63407;SHT31;49543;45.892;10.838;2023-02-01T18:34:36;7.08;64.53
63407;SHT31;49543;45.892;10.838;2023-02-01T18:37:02;7.00;64.82
63407;SHT31;49543;45.892;10.838;2023-02-01T18:39:27;6.95;64.73
63407;SHT31;49543;45.892;10.838;2023-02-01T18:41:52;6.94;64.83
63407;SHT31;49543;45.892;10.838;2023-02-01T18:44:18;6.94;64.72
63407;SHT31;49543;45.892;10.838;2023-02-01T18:46:43;6.94;64.03
63407;SHT31;49543;45.892;10.838;2023-02-01T18:49:09;6.98;64.28
63407;SHT31;49543;45.892;10.838;2023-02-01T18:51:37;6.97;64.12
63407;SHT31;49543;45.892;10.838;2023-02-01T18:54:06;6.98;64.18
63407;SHT31;49543;45.892;10.838;2023-02-01T18:56:35;6.97;64.49
63407;SHT31;49543;45.892;10.838;2023-02-01T18:59:03;6.95;64.05
63407;SHT31;49543;45.892;10.838;2023-02-01T19:01:29;6.87;63.96
63407;SHT31;49543;45.892;10.838;2023-02-01T19:03:54;6.88;64.73
63407;SHT31;49543;45.892;10.838;2023-02-01T19:06:20;6.85;65.01
63407;SHT31;49543;45.892;10.838;2023-02-01T19:08:47;6.87;64.77
63407;SHT31;49543;45.892;10.838;2023-02-01T19:11:14;6.88;64.78
63407;SHT31;49543;45.892;10.838;2023-02-01T19:13:40;6.85;64.87
63407;SHT31;49543;45.892;10.838;2023-02-01T19:16:09;6.83;65.35
63407;SHT31;49543;45.892;10.838;2023-02-01T19:18:35;6.81;65.38
63407;SHT31;49543;45.892;10.838;2023-02-01T19:21:09;6.87;65.07
63407;SHT31;49543;45.892;10.838;2023-02-01T19:23:38;6.83;64.99
63407;SHT31;49543;45.892;10.838;2023-02-01T19:26:03;6.81;65.48
63407;SHT31;49543;45.892;10.838;2023-02-01T19:28:34;6.84;65.87
63407;SHT31;49543;45.892;10.838;2023-02-01T19:31:03;6.79;65.66
63407;SHT31;49543;45.892;10.838;2023-02-01T19:33:29;6.88;65.33
63407;SHT31;49543;45.892;10.838;2023-02-01T19:35:58;6.91;65.13
63407;SHT31;49543;45.892;10.838;2023-02-01T19:38:24;6.80;65.27
63407;SHT31;49543;45.892;10.838;2023-02-01T19:40:49;6.74;65.22
63407;SHT31;49543;45.892;10.838;2023-02-01T19:43:15;6.76;65.31
63407;SHT31;49543;45.892;10.838;2023-02-01T19:45:40;6.70;65.51
63407;SHT31;49543;45.892;10.838;2023-02-01T19:48:07;6.70;65.71
63407;SHT31;49543;45.892;10.838;2023-02-01T19:50:33;6.67;65.43
63407;SHT31;49543;45.892;10.838;2023-02-01T19:52:58;6.66;65.43
63407;SHT31;49543;45.892;10.838;2023-02-01T19:55:23;6.65;65.86
63407;SHT31;49543;45.892;10.838;2023-02-01T19:57:49;6.65;65.81
63407;SHT31;49543;45.892;10.838;2023-02-01T20:00:14;6.67;65.85
63407;SHT31;49543;45.892;10.838;2023-02-01T20:02:41;6.65;65.89
63407;SHT31;49543;45.892;10.838;2023-02-01T20:05:06;6.60;65.66
63407;SHT31;49543;45.892;10.838;2023-02-01T20:07:35;6.62;65.30
63407;SHT31;49543;45.892;10.838;2023-02-01T20:10:02;6.57;65.61
63407;SHT31;49543;45.892;10.838;2023-02-01T20:12:27;6.50;66.29
63407;SHT31;49543;45.892;10.838;2023-02-01T20:14:52;6.43;66.46
63407;SHT31;49543;45.892;10.838;2023-02-01T20:17:21;6.40;66.52
63407;SHT31;49543;45.892;10.838;2023-02-01T20:19:46;6.39;66.49
63407;SHT31;49543;45.892;10.838;2023-02-01T20:22:11;6.40;65.87
63407;SHT31;49543;45.892;10.838;2023-02-01T20:24:37;6.36;65.96
63407;SHT31;49543;45.892;10.838;2023-02-01T20:27:03;6.39;66.14
63407;SHT31;49543;45.892;10.838;2023-02-01T20:29:30;6.36;66.17
63407;SHT31;49543;45.892;10.838;2023-02-01T20:31:55;6.36;66.27
63407;SHT31;49543;45.892;10.838;2023-02-01T20:34:21;6.35;66.31
63407;SHT31;49543;45.892;10.838;2023-02-01T20:36:47;6.39;66.20
63407;SHT31;49543;45.892;10.838;2023-02-01T20:39:12;6.39;65.95
63407;SHT31;49543;45.892;10.838;2023-02-01T20:41:38;6.35;66.05
63407;SHT31;49543;45.892;10.838;2023-02-01T20:44:03;6.35;66.27
63407;SHT31;49543;45.892;10.838;2023-02-01T20:46:29;6.33;66.49
63407;SHT31;49543;45.892;10.838;2023-02-01T20:48:54;6.32;66.53
63407;SHT31;49543;45.892;10.838;2023-02-01T20:51:20;6.30;66.46
63407;SHT31;49543;45.892;10.838;2023-02-01T20:53:45;6.12;66.53
63407;SHT31;49543;45.892;10.838;2023-02-01T20:56:12;6.15;66.44
63407;SHT31;49543;45.892;10.838;2023-02-01T20:58:38;6.11;66.60
63407;SHT31;49543;45.892;10.838;2023-02-01T21:01:04;6.07;66.80
63407;SHT31;49543;45.892;10.838;2023-02-01T21:03:29;6.01;66.35
63407;SHT31;49543;45.892;10.838;2023-02-01T21:05:56;6.02;66.31
63407;SHT31;49543;45.892;10.838;2023-02-01T21:08:33;6.08;66.21
63407;SHT31;49543;45.892;10.838;2023-02-01T21:13:28;6.19;66.59
63407;SHT31;49543;45.892;10.838;2023-02-01T21:15:58;6.15;66.49
63407;SHT31;49543;45.892;10.838;2023-02-01T21:18:24;6.09;66.32
63407;SHT31;49543;45.892;10.838;2023-02-01T21:20:49;6.07;66.60
63407;SHT31;49543;45.892;10.838;2023-02-01T21:23:15;6.07;66.13
63407;SHT31;49543;45.892;10.838;2023-02-01T21:25:41;6.08;65.97
63407;SHT31;49543;45.892;10.838;2023-02-01T21:28:06;6.11;66.01
63407;SHT31;49543;45.892;10.838;2023-02-01T21:30:32;6.11;65.69
63407;SHT31;49543;45.892;10.838;2023-02-01T21:33:00;6.15;65.58
63407;SHT31;49543;45.892;10.838;2023-02-01T21:35:26;6.17;65.87
63407;SHT31;49543;45.892;10.838;2023-02-01T21:37:51;6.24;65.12
63407;SHT31;49543;45.892;10.838;2023-02-01T21:40:17;6.19;64.22
63407;SHT31;49543;45.892;10.838;2023-02-01T21:42:42;6.14;65.19
63407;SHT31;49543;45.892;10.838;2023-02-01T21:45:10;6.11;65.96
63407;SHT31;49543;45.892;10.838;2023-02-01T21:47:35;6.11;66.04
63407;SHT31;49543;45.892;10.838;2023-02-01T21:50:06;6.14;66.00
63407;SHT31;49543;45.892;10.838;2023-02-01T21:52:31;6.08;65.88
63407;SHT31;49543;45.892;10.838;2023-02-01T21:54:57;6.09;65.38
63407;SHT31;49543;45.892;10.838;2023-02-01T21:57:27;6.02;65.28
63407;SHT31;49543;45.892;10.838;2023-02-01T21:59:52;6.04;65.95
63407;SHT31;49543;45.892;10.838;2023-02-01T22:02:18;6.04;66.36
63407;SHT31;49543;45.892;10.838;2023-02-01T22:04:43;6.01;66.66
63407;SHT31;49543;45.892;10.838;2023-02-01T22:07:09;6.01;65.78
63407;SHT31;49543;45.892;10.838;2023-02-01T22:09:35;5.91;65.60
63407;SHT31;49543;45.892;10.838;2023-02-01T22:12:00;5.91;66.30
63407;SHT31;49543;45.892;10.838;2023-02-01T22:14:26;5.90;66.49
63407;SHT31;49543;45.892;10.838;2023-02-01T22:16:51;5.87;66.83
63407;SHT31;49543;45.892;10.838;2023-02-01T22:19:16;5.83;66.31
63407;SHT31;49543;45.892;10.838;2023-02-01T22:21:43;5.80;66.00
63407;SHT31;49543;45.892;10.838;2023-02-01T22:24:13;5.83;65.18
63407;SHT31;49543;45.892;10.838;2023-02-01T22:26:39;5.70;65.02
63407;SHT31;49543;45.892;10.838;2023-02-01T22:29:05;5.62;65.76
63407;SHT31;49543;45.892;10.838;2023-02-01T22:31:30;5.59;66.52
63407;SHT31;49543;45.892;10.838;2023-02-01T22:33:56;5.53;67.46
63407;SHT31;49543;45.892;10.838;2023-02-01T22:36:21;5.54;67.21
63407;SHT31;49543;45.892;10.838;2023-02-01T22:38:49;5.56;65.23
63407;SHT31;49543;45.892;10.838;2023-02-01T22:41:14;5.50;65.29
63407;SHT31;49543;45.892;10.838;2023-02-01T22:43:42;5.53;65.76
63407;SHT31;49543;45.892;10.838;2023-02-01T22:46:15;5.56;66.52
63407;SHT31;49543;45.892;10.838;2023-02-01T22:48:42;5.52;65.23
63407;SHT31;49543;45.892;10.838;2023-02-01T22:51:22;5.54;64.83
63407;SHT31;49543;45.892;10.838;2023-02-01T22:53:48;5.62;65.06
63407;SHT31;49543;45.892;10.838;2023-02-01T22:56:21;5.57;65.71
63407;SHT31;49543;45.892;10.838;2023-02-01T22:58:47;5.62;64.92
63407;SHT31;49543;45.892;10.838;2023-02-01T23:01:13;5.56;64.59
63407;SHT31;49543;45.892;10.838;2023-02-01T23:03:40;5.64;64.42
63407;SHT31;49543;45.892;10.838;2023-02-01T23:06:05;5.63;64.79
63407;SHT31;49543;45.892;10.838;2023-02-01T23:08:31;5.66;65.17
63407;SHT31;49543;45.892;10.838;2023-02-01T23:11:00;5.71;65.14
63407;SHT31;49543;45.892;10.838;2023-02-01T23:13:25;5.74;64.90
63407;SHT31;49543;45.892;10.838;2023-02-01T23:15:51;5.80;64.67
63407;SHT31;49543;45.892;10.838;2023-02-01T23:18:16;5.80;64.87
63407;SHT31;49543;45.892;10.838;2023-02-01T23:20:41;5.78;65.08
63407;SHT31;49543;45.892;10.838;2023-02-01T23:23:06;5.84;64.07
63407;SHT31;49543;45.892;10.838;2023-02-01T23:25:32;5.87;63.90
63407;SHT31;49543;45.892;10.838;2023-02-01T23:27:57;5.86;63.29
63407;SHT31;49543;45.892;10.838;2023-02-01T23:30:24;5.74;63.47
63407;SHT31;49543;45.892;10.838;2023-02-01T23:32:50;5.64;63.95
63407;SHT31;49543;45.892;10.838;2023-02-01T23:35:15;5.69;64.06
63407;SHT31;49543;45.892;10.838;2023-02-01T23:37:40;5.66;64.51
63407;SHT31;49543;45.892;10.838;2023-02-01T23:40:06;5.62;64.97
63407;SHT31;49543;45.892;10.838;2023-02-01T23:42:31;5.63;64.72
63407;SHT31;49543;45.892;10.838;2023-02-01T23:44:57;5.64;64.33
63407;SHT31;49543;45.892;10.838;2023-02-01T23:47:22;5.64;63.21
63407;SHT31;49543;45.892;10.838;2023-02-01T23:49:47;5.62;63.92
